Aviation Digital Data Service (ADDS)

Output produced by TAFs form (1023 UTC 01 October 2016)
found at http://www.aviationweather.gov/adds/tafs/
 
KIAD 010849Z 0109/0212 05007KT 3SM -RADZ BR OVC006 
     FM011500 07005KT 2SM BR OVC008 
     FM011900 13005KT P6SM BKN010 
     FM012000 14005KT P6SM BKN015 
     FM020200 VRB03KT P6SM BKN030 
     FM020900 VRB03KT 3SM BR BKN020 
     FM021100 VRB03KT 3SM BR SCT020